sensor_id;sensor_type;location;lat;lon;timestamp;temperature;humidity
837;DHT22;400;53.550;9.932;2022-10-10T00:00:57;11.10;99.90
837;DHT22;400;53.550;9.932;2022-10-10T00:03:25;11.10;99.90
837;DHT22;400;53.550;9.932;2022-10-10T00:05:52;11.10;99.90
837;DHT22;400;53.550;9.932;2022-10-10T00:08:19;11.10;99.90
837;DHT22;400;53.550;9.932;2022-10-10T00:10:46;11.00;99.90
837;DHT22;400;53.550;9.932;2022-10-10T00:13:13;11.00;99.90
837;DHT22;400;53.550;9.932;2022-10-10T00:15:40;11.00;99.90
837;DHT22;400;53.550;9.932;2022-10-10T00:18:07;11.00;99.90
837;DHT22;400;53.550;9.932;2022-10-10T00:20:35;11.00;99.90
837;DHT22;400;53.550;9.932;2022-10-10T00:23:02;11.00;99.90
837;DHT22;400;53.550;9.932;2022-10-10T00:25:29;11.00;99.90
837;DHT22;400;53.550;9.932;2022-10-10T00:28:00;11.00;99.90
837;DHT22;400;53.550;9.932;2022-10-10T00:30:27;11.00;99.90
837;DHT22;400;53.550;9.932;2022-10-10T00:32:53;11.10;99.90
837;DHT22;400;53.550;9.932;2022-10-10T00:35:20;11.10;99.90
837;DHT22;400;53.550;9.932;2022-10-10T00:37:49;11.00;99.90
837;DHT22;400;53.550;9.932;2022-10-10T00:40:16;11.10;99.90
837;DHT22;400;53.550;9.932;2022-10-10T00:42:43;11.00;99.90
837;DHT22;400;53.550;9.932;2022-10-10T00:45:23;11.10;99.90
837;DHT22;400;53.550;9.932;2022-10-10T00:47:54;11.00;99.90
837;DHT22;400;53.550;9.932;2022-10-10T00:50:22;11.00;99.90
837;DHT22;400;53.550;9.932;2022-10-10T00:52:51;11.00;99.90
837;DHT22;400;53.550;9.932;2022-10-10T00:55:19;11.00;99.90
837;DHT22;400;53.550;9.932;2022-10-10T00:57:46;10.90;99.90
837;DHT22;400;53.550;9.932;2022-10-10T01:00:15;11.00;99.90
837;DHT22;400;53.550;9.932;2022-10-10T01:02:43;10.90;99.90
837;DHT22;400;53.550;9.932;2022-10-10T01:05:09;10.90;99.90
837;DHT22;400;53.550;9.932;2022-10-10T01:07:37;10.90;99.90
837;DHT22;400;53.550;9.932;2022-10-10T01:10:09;10.90;99.90
837;DHT22;400;53.550;9.932;2022-10-10T01:12:49;10.90;99.90
837;DHT22;400;53.550;9.932;2022-10-10T01:15:22;10.90;99.90
837;DHT22;400;53.550;9.932;2022-10-10T01:17:56;10.90;99.90
837;DHT22;400;53.550;9.932;2022-10-10T01:20:48;10.90;99.90
837;DHT22;400;53.550;9.932;2022-10-10T01:29:33;10.80;99.90
837;DHT22;400;53.550;9.932;2022-10-10T01:32:07;10.80;99.90
837;DHT22;400;53.550;9.932;2022-10-10T01:34:40;10.80;99.90
837;DHT22;400;53.550;9.932;2022-10-10T01:37:16;10.70;99.90
837;DHT22;400;53.550;9.932;2022-10-10T01:39:51;10.70;99.90
837;DHT22;400;53.550;9.932;2022-10-10T01:42:25;10.70;99.90
837;DHT22;400;53.550;9.932;2022-10-10T01:44:55;10.70;99.90
837;DHT22;400;53.550;9.932;2022-10-10T01:47:23;10.70;99.90
837;DHT22;400;53.550;9.932;2022-10-10T01:49:52;10.70;99.90
837;DHT22;400;53.550;9.932;2022-10-10T01:52:29;10.70;99.90
837;DHT22;400;53.550;9.932;2022-10-10T01:55:08;10.70;99.90
837;DHT22;400;53.550;9.932;2022-10-10T01:57:45;10.70;99.90
837;DHT22;400;53.550;9.932;2022-10-10T02:00:16;10.60;99.90
837;DHT22;400;53.550;9.932;2022-10-10T02:02:48;10.60;99.90
837;DHT22;400;53.550;9.932;2022-10-10T02:05:21;10.60;99.90
837;DHT22;400;53.550;9.932;2022-10-10T02:07:54;10.60;99.90
837;DHT22;400;53.550;9.932;2022-10-10T02:10:25;10.50;99.90
837;DHT22;400;53.550;9.932;2022-10-10T02:12:55;10.50;99.90
837;DHT22;400;53.550;9.932;2022-10-10T02:15:25;10.60;99.90
837;DHT22;400;53.550;9.932;2022-10-10T02:17:55;10.70;99.90
837;DHT22;400;53.550;9.932;2022-10-10T02:20:25;10.60;99.90
837;DHT22;400;53.550;9.932;2022-10-10T02:22:53;10.60;99.90
837;DHT22;400;53.550;9.932;2022-10-10T02:25:26;10.60;99.90
837;DHT22;400;53.550;9.932;2022-10-10T02:28:05;10.50;99.90
837;DHT22;400;53.550;9.932;2022-10-10T02:30:37;10.50;99.90
837;DHT22;400;53.550;9.932;2022-10-10T02:33:07;10.50;99.90
837;DHT22;400;53.550;9.932;2022-10-10T02:35:38;10.50;99.90
837;DHT22;400;53.550;9.932;2022-10-10T02:38:09;10.50;99.90
837;DHT22;400;53.550;9.932;2022-10-10T02:40:37;10.50;99.90
837;DHT22;400;53.550;9.932;2022-10-10T02:43:06;10.40;99.90
837;DHT22;400;53.550;9.932;2022-10-10T02:45:38;10.40;99.90
837;DHT22;400;53.550;9.932;2022-10-10T02:48:08;10.40;99.90
837;DHT22;400;53.550;9.932;2022-10-10T02:50:35;10.30;99.90
837;DHT22;400;53.550;9.932;2022-10-10T02:53:02;10.30;99.90
837;DHT22;400;53.550;9.932;2022-10-10T02:55:29;10.30;99.90
837;DHT22;400;53.550;9.932;2022-10-10T02:57:58;10.20;99.90
837;DHT22;400;53.550;9.932;2022-10-10T03:00:25;10.20;99.90
837;DHT22;400;53.550;9.932;2022-10-10T03:02:55;10.20;99.90
837;DHT22;400;53.550;9.932;2022-10-10T03:05:22;10.20;99.90
837;DHT22;400;53.550;9.932;2022-10-10T03:07:49;10.20;99.90
837;DHT22;400;53.550;9.932;2022-10-10T03:10:16;10.20;99.90
837;DHT22;400;53.550;9.932;2022-10-10T03:12:43;10.20;99.90
837;DHT22;400;53.550;9.932;2022-10-10T03:15:10;10.10;99.90
837;DHT22;400;53.550;9.932;2022-10-10T03:17:37;10.10;99.90
837;DHT22;400;53.550;9.932;2022-10-10T03:20:06;10.10;99.90
837;DHT22;400;53.550;9.932;2022-10-10T03:22:34;10.10;99.90
837;DHT22;400;53.550;9.932;2022-10-10T03:25:01;10.10;99.90
837;DHT22;400;53.550;9.932;2022-10-10T03:27:30;10.10;99.90
837;DHT22;400;53.550;9.932;2022-10-10T03:30:04;10.10;99.90
837;DHT22;400;53.550;9.932;2022-10-10T03:32:34;10.10;99.90
837;DHT22;400;53.550;9.932;2022-10-10T03:35:01;10.10;99.90
837;DHT22;400;53.550;9.932;2022-10-10T03:37:31;10.10;99.90
837;DHT22;400;53.550;9.932;2022-10-10T03:39:59;10.00;99.90
837;DHT22;400;53.550;9.932;2022-10-10T03:42:26;10.10;99.90
837;DHT22;400;53.550;9.932;2022-10-10T03:44:53;10.00;99.90
837;DHT22;400;53.550;9.932;2022-10-10T03:47:20;10.00;99.90
837;DHT22;400;53.550;9.932;2022-10-10T03:49:47;10.00;99.90
837;DHT22;400;53.550;9.932;2022-10-10T03:52:14;10.00;99.90
837;DHT22;400;53.550;9.932;2022-10-10T03:54:42;10.00;99.90
837;DHT22;400;53.550;9.932;2022-10-10T03:57:09;10.00;99.90
837;DHT22;400;53.550;9.932;2022-10-10T03:59:36;9.90;99.90
837;DHT22;400;53.550;9.932;2022-10-10T04:02:03;9.90;99.90
837;DHT22;400;53.550;9.932;2022-10-10T04:04:30;9.90;99.90
837;DHT22;400;53.550;9.932;2022-10-10T04:06:57;9.80;99.90
837;DHT22;400;53.550;9.932;2022-10-10T04:09:24;9.70;99.90
837;DHT22;400;53.550;9.932;2022-10-10T04:11:52;9.70;99.90
837;DHT22;400;53.550;9.932;2022-10-10T04:14:20;9.70;99.90
837;DHT22;400;53.550;9.932;2022-10-10T04:16:47;9.70;99.90
837;DHT22;400;53.550;9.932;2022-10-10T04:19:14;9.70;99.90
837;DHT22;400;53.550;9.932;2022-10-10T04:21:42;9.70;99.90
837;DHT22;400;53.550;9.932;2022-10-10T04:24:11;9.60;99.90
837;DHT22;400;53.550;9.932;2022-10-10T04:26:39;9.60;99.90
837;DHT22;400;53.550;9.932;2022-10-10T04:29:07;9.60;99.90
837;DHT22;400;53.550;9.932;2022-10-10T04:31:34;9.60;99.90
837;DHT22;400;53.550;9.932;2022-10-10T04:34:05;9.60;99.90
837;DHT22;400;53.550;9.932;2022-10-10T04:36:31;9.70;99.90
837;DHT22;400;53.550;9.932;2022-10-10T04:38:59;9.60;99.90
837;DHT22;400;53.550;9.932;2022-10-10T04:41:26;9.70;99.90
837;DHT22;400;53.550;9.932;2022-10-10T04:43:53;9.70;99.90
837;DHT22;400;53.550;9.932;2022-10-10T04:46:21;9.60;99.90
837;DHT22;400;53.550;9.932;2022-10-10T04:48:48;9.60;99.90
837;DHT22;400;53.550;9.932;2022-10-10T04:51:17;9.70;99.90
837;DHT22;400;53.550;9.932;2022-10-10T04:53:48;9.60;99.90
837;DHT22;400;53.550;9.932;2022-10-10T04:56:15;9.50;99.90
837;DHT22;400;53.550;9.932;2022-10-10T04:58:42;9.50;99.90
837;DHT22;400;53.550;9.932;2022-10-10T05:01:12;9.40;99.90
837;DHT22;400;53.550;9.932;2022-10-10T05:03:40;9.40;99.90
837;DHT22;400;53.550;9.932;2022-10-10T05:06:08;9.40;99.90
837;DHT22;400;53.550;9.932;2022-10-10T05:08:38;9.40;99.90
837;DHT22;400;53.550;9.932;2022-10-10T05:11:06;9.40;99.90
837;DHT22;400;53.550;9.932;2022-10-10T05:13:34;9.40;99.90
837;DHT22;400;53.550;9.932;2022-10-10T05:16:01;9.30;99.90
837;DHT22;400;53.550;9.932;2022-10-10T05:18:28;9.40;99.90
837;DHT22;400;53.550;9.932;2022-10-10T05:20:57;9.40;99.90
837;DHT22;400;53.550;9.932;2022-10-10T05:23:24;9.40;99.90
837;DHT22;400;53.550;9.932;2022-10-10T05:25:51;9.50;99.90
837;DHT22;400;53.550;9.932;2022-10-10T05:28:18;9.40;99.90
837;DHT22;400;53.550;9.932;2022-10-10T05:30:45;9.50;99.90
837;DHT22;400;53.550;9.932;2022-10-10T05:33:12;9.40;99.90
837;DHT22;400;53.550;9.932;2022-10-10T05:35:39;9.40;99.90
837;DHT22;400;53.550;9.932;2022-10-10T05:38:11;9.40;99.90
837;DHT22;400;53.550;9.932;2022-10-10T05:40:38;9.40;99.90
837;DHT22;400;53.550;9.932;2022-10-10T05:43:05;9.40;99.90
837;DHT22;400;53.550;9.932;2022-10-10T05:45:33;9.30;99.90
837;DHT22;400;53.550;9.932;2022-10-10T05:48:00;9.40;99.90
837;DHT22;400;53.550;9.932;2022-10-10T05:50:31;9.40;99.90
837;DHT22;400;53.550;9.932;2022-10-10T05:53:01;9.40;99.90
837;DHT22;400;53.550;9.932;2022-10-10T05:55:32;9.40;99.90
837;DHT22;400;53.550;9.932;2022-10-10T05:58:02;9.40;99.90
837;DHT22;400;53.550;9.932;2022-10-10T06:00:30;9.30;99.90
837;DHT22;400;53.550;9.932;2022-10-10T06:02:57;9.30;99.90
837;DHT22;400;53.550;9.932;2022-10-10T06:05:24;9.40;99.90
837;DHT22;400;53.550;9.932;2022-10-10T06:07:51;9.40;99.90
837;DHT22;400;53.550;9.932;2022-10-10T06:10:18;9.40;99.90
837;DHT22;400;53.550;9.932;2022-10-10T06:12:47;9.40;99.90
837;DHT22;400;53.550;9.932;2022-10-10T06:15:14;9.30;99.90
837;DHT22;400;53.550;9.932;2022-10-10T06:17:41;9.30;99.90
837;DHT22;400;53.550;9.932;2022-10-10T06:20:08;9.30;99.90
837;DHT22;400;53.550;9.932;2022-10-10T06:22:38;9.30;99.90
837;DHT22;400;53.550;9.932;2022-10-10T06:25:05;9.40;99.90
837;DHT22;400;53.550;9.932;2022-10-10T06:27:34;9.40;99.90
837;DHT22;400;53.550;9.932;2022-10-10T06:30:09;9.40;99.90
837;DHT22;400;53.550;9.932;2022-10-10T06:32:43;9.40;99.90
837;DHT22;400;53.550;9.932;2022-10-10T06:35:12;9.40;99.90
837;DHT22;400;53.550;9.932;2022-10-10T06:37:39;9.40;99.90
837;DHT22;400;53.550;9.932;2022-10-10T06:40:06;9.50;99.90
837;DHT22;400;53.550;9.932;2022-10-10T06:42:36;9.60;99.90
837;DHT22;400;53.550;9.932;2022-10-10T06:45:06;9.60;99.90
837;DHT22;400;53.550;9.932;2022-10-10T06:47:34;9.60;99.90
837;DHT22;400;53.550;9.932;2022-10-10T06:50:01;9.70;99.90
837;DHT22;400;53.550;9.932;2022-10-10T06:52:30;9.60;99.90
837;DHT22;400;53.550;9.932;2022-10-10T06:55:00;9.70;99.90
837;DHT22;400;53.550;9.932;2022-10-10T06:57:32;9.70;99.90
837;DHT22;400;53.550;9.932;2022-10-10T07:00:05;9.70;99.90
837;DHT22;400;53.550;9.932;2022-10-10T07:02:32;9.70;99.90
837;DHT22;400;53.550;9.932;2022-10-10T07:05:00;9.70;99.90
837;DHT22;400;53.550;9.932;2022-10-10T07:07:29;9.70;99.90
837;DHT22;400;53.550;9.932;2022-10-10T07:09:56;9.70;99.90
837;DHT22;400;53.550;9.932;2022-10-10T07:12:26;9.80;99.90
837;DHT22;400;53.550;9.932;2022-10-10T07:14:54;9.80;99.90
837;DHT22;400;53.550;9.932;2022-10-10T07:17:22;9.80;99.90
837;DHT22;400;53.550;9.932;2022-10-10T07:19:49;9.80;99.90
837;DHT22;400;53.550;9.932;2022-10-10T07:22:19;9.90;99.90
837;DHT22;400;53.550;9.932;2022-10-10T07:24:46;9.90;99.90
837;DHT22;400;53.550;9.932;2022-10-10T07:27:13;9.90;99.90
837;DHT22;400;53.550;9.932;2022-10-10T07:29:40;10.00;99.90
837;DHT22;400;53.550;9.932;2022-10-10T07:32:07;10.00;99.90
837;DHT22;400;53.550;9.932;2022-10-10T07:34:36;10.10;99.90
837;DHT22;400;53.550;9.932;2022-10-10T07:37:03;10.10;99.90
837;DHT22;400;53.550;9.932;2022-10-10T07:39:31;10.20;99.90
837;DHT22;400;53.550;9.932;2022-10-10T07:42:00;10.20;99.90
837;DHT22;400;53.550;9.932;2022-10-10T07:44:35;10.20;99.90
837;DHT22;400;53.550;9.932;2022-10-10T07:47:04;10.30;99.90
837;DHT22;400;53.550;9.932;2022-10-10T07:49:33;10.30;99.90
837;DHT22;400;53.550;9.932;2022-10-10T07:52:08;10.40;99.90
837;DHT22;400;53.550;9.932;2022-10-10T07:54:41;10.50;99.90
837;DHT22;400;53.550;9.932;2022-10-10T07:57:09;10.50;99.90
837;DHT22;400;53.550;9.932;2022-10-10T07:59:36;10.60;99.90
837;DHT22;400;53.550;9.932;2022-10-10T08:02:05;10.70;99.90
837;DHT22;400;53.550;9.932;2022-10-10T08:04:33;10.70;99.90
837;DHT22;400;53.550;9.932;2022-10-10T08:07:00;10.80;99.90
837;DHT22;400;53.550;9.932;2022-10-10T08:09:32;10.80;99.90
837;DHT22;400;53.550;9.932;2022-10-10T08:12:02;10.90;99.90
837;DHT22;400;53.550;9.932;2022-10-10T08:14:31;10.90;99.90
837;DHT22;400;53.550;9.932;2022-10-10T08:17:04;11.00;99.90
837;DHT22;400;53.550;9.932;2022-10-10T08:19:40;11.00;99.90
837;DHT22;400;53.550;9.932;2022-10-10T08:22:14;11.10;99.90
837;DHT22;400;53.550;9.932;2022-10-10T08:24:50;11.10;99.90
837;DHT22;400;53.550;9.932;2022-10-10T08:27:28;11.20;99.90
837;DHT22;400;53.550;9.932;2022-10-10T08:29:55;11.20;99.90
837;DHT22;400;53.550;9.932;2022-10-10T08:35:23;11.30;99.90
837;DHT22;400;53.550;9.932;2022-10-10T08:38:18;11.40;99.90
837;DHT22;400;53.550;9.932;2022-10-10T08:41:07;11.50;99.90
837;DHT22;400;53.550;9.932;2022-10-10T08:43:43;11.60;99.90
837;DHT22;400;53.550;9.932;2022-10-10T08:46:24;11.70;99.90
837;DHT22;400;53.550;9.932;2022-10-10T08:49:11;11.80;99.90
837;DHT22;400;53.550;9.932;2022-10-10T08:51:47;11.90;99.90
837;DHT22;400;53.550;9.932;2022-10-10T08:54:17;11.90;99.90
837;DHT22;400;53.550;9.932;2022-10-10T08:56:49;12.00;99.90
837;DHT22;400;53.550;9.932;2022-10-10T08:59:28;12.10;99.90
837;DHT22;400;53.550;9.932;2022-10-10T09:02:27;12.20;99.90
837;DHT22;400;53.550;9.932;2022-10-10T09:05:04;12.30;99.90
837;DHT22;400;53.550;9.932;2022-10-10T09:07:52;12.40;99.90
837;DHT22;400;53.550;9.932;2022-10-10T09:10:39;12.40;99.90
837;DHT22;400;53.550;9.932;2022-10-10T09:13:19;12.50;99.90
837;DHT22;400;53.550;9.932;2022-10-10T09:15:55;12.60;99.90
837;DHT22;400;53.550;9.932;2022-10-10T09:18:39;12.60;99.90
837;DHT22;400;53.550;9.932;2022-10-10T09:21:13;12.70;99.90
837;DHT22;400;53.550;9.932;2022-10-10T09:23:49;12.80;99.90
837;DHT22;400;53.550;9.932;2022-10-10T09:26:20;12.80;99.90
837;DHT22;400;53.550;9.932;2022-10-10T09:29:03;12.90;99.90
837;DHT22;400;53.550;9.932;2022-10-10T09:31:33;12.90;99.90
837;DHT22;400;53.550;9.932;2022-10-10T09:34:04;13.00;99.90
837;DHT22;400;53.550;9.932;2022-10-10T09:36:46;13.10;99.90
837;DHT22;400;53.550;9.932;2022-10-10T09:39:21;13.10;99.90
837;DHT22;400;53.550;9.932;2022-10-10T09:41:54;13.20;99.90
837;DHT22;400;53.550;9.932;2022-10-10T09:44:23;13.30;99.90
837;DHT22;400;53.550;9.932;2022-10-10T09:46:50;13.30;99.90
837;DHT22;400;53.550;9.932;2022-10-10T09:49:19;13.40;99.90
837;DHT22;400;53.550;9.932;2022-10-10T09:51:47;13.50;99.90
837;DHT22;400;53.550;9.932;2022-10-10T09:54:18;13.50;99.90
837;DHT22;400;53.550;9.932;2022-10-10T09:56:55;13.60;99.90
837;DHT22;400;53.550;9.932;2022-10-10T09:59:39;13.70;99.90
837;DHT22;400;53.550;9.932;2022-10-10T10:02:17;13.70;99.90
837;DHT22;400;53.550;9.932;2022-10-10T10:04:46;13.70;99.90
837;DHT22;400;53.550;9.932;2022-10-10T10:07:23;13.80;99.90
837;DHT22;400;53.550;9.932;2022-10-10T10:09:51;13.80;99.90
837;DHT22;400;53.550;9.932;2022-10-10T10:12:21;13.90;99.90
837;DHT22;400;53.550;9.932;2022-10-10T10:14:52;13.90;99.90
837;DHT22;400;53.550;9.932;2022-10-10T10:17:23;13.90;99.90
837;DHT22;400;53.550;9.932;2022-10-10T10:19:50;14.00;99.90
837;DHT22;400;53.550;9.932;2022-10-10T10:22:33;14.00;99.90
837;DHT22;400;53.550;9.932;2022-10-10T10:25:27;14.10;99.90
837;DHT22;400;53.550;9.932;2022-10-10T10:28:13;14.10;99.90
837;DHT22;400;53.550;9.932;2022-10-10T10:30:45;14.20;99.90
837;DHT22;400;53.550;9.932;2022-10-10T10:33:30;14.30;99.90
837;DHT22;400;53.550;9.932;2022-10-10T10:36:08;14.40;99.90
837;DHT22;400;53.550;9.932;2022-10-10T10:38:42;14.40;99.90
837;DHT22;400;53.550;9.932;2022-10-10T10:41:22;14.50;99.90
837;DHT22;400;53.550;9.932;2022-10-10T10:46:56;14.60;99.90
837;DHT22;400;53.550;9.932;2022-10-10T10:49:28;14.60;99.90
837;DHT22;400;53.550;9.932;2022-10-10T10:52:15;14.70;99.90
837;DHT22;400;53.550;9.932;2022-10-10T10:57:46;14.80;99.90
837;DHT22;400;53.550;9.932;2022-10-10T11:00:22;15.00;99.90
837;DHT22;400;53.550;9.932;2022-10-10T11:02:59;15.00;99.90
837;DHT22;400;53.550;9.932;2022-10-10T11:05:36;15.00;99.90
837;DHT22;400;53.550;9.932;2022-10-10T11:08:36;15.20;99.90
837;DHT22;400;53.550;9.932;2022-10-10T11:11:30;15.20;99.90
837;DHT22;400;53.550;9.932;2022-10-10T11:14:03;15.30;99.90
837;DHT22;400;53.550;9.932;2022-10-10T11:16:36;15.40;99.90
837;DHT22;400;53.550;9.932;2022-10-10T11:19:20;15.50;99.90
837;DHT22;400;53.550;9.932;2022-10-10T11:21:56;15.60;99.90
837;DHT22;400;53.550;9.932;2022-10-10T11:24:33;15.60;99.90
837;DHT22;400;53.550;9.932;2022-10-10T11:27:06;15.70;99.90
837;DHT22;400;53.550;9.932;2022-10-10T11:29:47;15.80;99.90
837;DHT22;400;53.550;9.932;2022-10-10T11:32:25;15.90;99.90
837;DHT22;400;53.550;9.932;2022-10-10T11:35:14;15.90;99.90
837;DHT22;400;53.550;9.932;2022-10-10T11:37:44;16.00;99.90
837;DHT22;400;53.550;9.932;2022-10-10T11:40:26;16.00;99.90
837;DHT22;400;53.550;9.932;2022-10-10T11:42:58;16.30;99.90
837;DHT22;400;53.550;9.932;2022-10-10T11:45:34;16.30;99.90
837;DHT22;400;53.550;9.932;2022-10-10T11:48:18;16.30;99.90
837;DHT22;400;53.550;9.932;2022-10-10T11:50:54;16.30;99.90
837;DHT22;400;53.550;9.932;2022-10-10T11:53:31;16.40;99.90
837;DHT22;400;53.550;9.932;2022-10-10T11:56:17;16.50;99.90
837;DHT22;400;53.550;9.932;2022-10-10T11:58:56;16.60;99.90
837;DHT22;400;53.550;9.932;2022-10-10T12:01:32;16.60;99.90
837;DHT22;400;53.550;9.932;2022-10-10T12:04:05;16.70;99.90
837;DHT22;400;53.550;9.932;2022-10-10T12:06:44;16.80;99.90
837;DHT22;400;53.550;9.932;2022-10-10T12:09:30;16.80;99.90
837;DHT22;400;53.550;9.932;2022-10-10T12:12:00;16.90;99.90
837;DHT22;400;53.550;9.932;2022-10-10T12:14:31;16.90;99.90
837;DHT22;400;53.550;9.932;2022-10-10T12:17:04;16.90;99.90
837;DHT22;400;53.550;9.932;2022-10-10T12:19:41;17.00;99.90
837;DHT22;400;53.550;9.932;2022-10-10T12:22:21;17.00;99.90
837;DHT22;400;53.550;9.932;2022-10-10T12:25:07;17.00;99.90
837;DHT22;400;53.550;9.932;2022-10-10T12:28:18;17.10;99.90
837;DHT22;400;53.550;9.932;2022-10-10T12:31:25;17.10;99.90
837;DHT22;400;53.550;9.932;2022-10-10T12:36:56;17.10;99.90
837;DHT22;400;53.550;9.932;2022-10-10T12:46:24;17.20;99.90
837;DHT22;400;53.550;9.932;2022-10-10T12:49:14;17.20;99.90
837;DHT22;400;53.550;9.932;2022-10-10T12:51:56;17.20;99.90
837;DHT22;400;53.550;9.932;2022-10-10T12:54:28;17.20;99.90
837;DHT22;400;53.550;9.932;2022-10-10T12:57:10;17.20;99.90
837;DHT22;400;53.550;9.932;2022-10-10T12:59:44;17.20;99.90
837;DHT22;400;53.550;9.932;2022-10-10T13:02:17;17.20;99.90
837;DHT22;400;53.550;9.932;2022-10-10T13:04:56;17.20;99.90
837;DHT22;400;53.550;9.932;2022-10-10T13:07:30;17.10;99.90
837;DHT22;400;53.550;9.932;2022-10-10T13:10:14;17.20;99.90
837;DHT22;400;53.550;9.932;2022-10-10T13:12:57;17.20;99.90
837;DHT22;400;53.550;9.932;2022-10-10T13:15:27;17.20;99.90
837;DHT22;400;53.550;9.932;2022-10-10T13:17:55;17.20;99.90
837;DHT22;400;53.550;9.932;2022-10-10T13:20:30;17.30;99.90
837;DHT22;400;53.550;9.932;2022-10-10T13:22:58;17.30;99.90
837;DHT22;400;53.550;9.932;2022-10-10T13:25:28;17.30;99.90
837;DHT22;400;53.550;9.932;2022-10-10T13:27:57;17.30;99.90
837;DHT22;400;53.550;9.932;2022-10-10T13:30:25;17.30;99.90
837;DHT22;400;53.550;9.932;2022-10-10T13:32:55;17.40;99.90
837;DHT22;400;53.550;9.932;2022-10-10T13:35:26;17.40;99.90
837;DHT22;400;53.550;9.932;2022-10-10T13:38:03;17.40;99.90
837;DHT22;400;53.550;9.932;2022-10-10T13:40:37;17.50;99.90
837;DHT22;400;53.550;9.932;2022-10-10T13:43:14;17.50;99.90
837;DHT22;400;53.550;9.932;2022-10-10T13:45:45;17.50;99.90
837;DHT22;400;53.550;9.932;2022-10-10T13:48:26;17.50;99.90
837;DHT22;400;53.550;9.932;2022-10-10T13:51:04;17.50;99.90
837;DHT22;400;53.550;9.932;2022-10-10T13:53:53;17.50;99.90
837;DHT22;400;53.550;9.932;2022-10-10T13:56:26;17.50;99.90
837;DHT22;400;53.550;9.932;2022-10-10T13:59:03;17.50;99.90
837;DHT22;400;53.550;9.932;2022-10-10T14:01:33;17.50;99.90
837;DHT22;400;53.550;9.932;2022-10-10T14:04:18;17.50;99.90
837;DHT22;400;53.550;9.932;2022-10-10T14:06:57;17.50;99.90
837;DHT22;400;53.550;9.932;2022-10-10T14:09:29;17.40;99.90
837;DHT22;400;53.550;9.932;2022-10-10T14:12:05;17.40;99.90
837;DHT22;400;53.550;9.932;2022-10-10T14:14:42;17.30;99.90
837;DHT22;400;53.550;9.932;2022-10-10T14:17:14;17.30;99.90
837;DHT22;400;53.550;9.932;2022-10-10T14:19:48;17.30;99.90
837;DHT22;400;53.550;9.932;2022-10-10T14:22:19;17.30;99.90
837;DHT22;400;53.550;9.932;2022-10-10T14:24:47;17.30;99.90
837;DHT22;400;53.550;9.932;2022-10-10T14:27:22;17.20;99.90
837;DHT22;400;53.550;9.932;2022-10-10T14:29:55;17.20;99.90
837;DHT22;400;53.550;9.932;2022-10-10T14:32:23;17.20;99.90
837;DHT22;400;53.550;9.932;2022-10-10T14:34:54;17.20;99.90
837;DHT22;400;53.550;9.932;2022-10-10T14:37:25;17.20;99.90
837;DHT22;400;53.550;9.932;2022-10-10T14:39:53;17.20;99.90
837;DHT22;400;53.550;9.932;2022-10-10T14:42:23;17.20;99.90
837;DHT22;400;53.550;9.932;2022-10-10T14:44:59;17.30;99.90
837;DHT22;400;53.550;9.932;2022-10-10T14:47:29;17.30;99.90
837;DHT22;400;53.550;9.932;2022-10-10T14:50:01;17.30;99.90
837;DHT22;400;53.550;9.932;2022-10-10T14:52:35;17.30;99.90
837;DHT22;400;53.550;9.932;2022-10-10T14:55:06;17.20;99.90
837;DHT22;400;53.550;9.932;2022-10-10T14:57:42;17.30;99.90
837;DHT22;400;53.550;9.932;2022-10-10T15:00:21;17.30;99.90
837;DHT22;400;53.550;9.932;2022-10-10T15:02:48;17.30;99.90
837;DHT22;400;53.550;9.932;2022-10-10T15:05:17;17.20;99.90
837;DHT22;400;53.550;9.932;2022-10-10T15:07:52;17.10;99.90
837;DHT22;400;53.550;9.932;2022-10-10T15:10:26;17.10;99.90
837;DHT22;400;53.550;9.932;2022-10-10T15:13:02;17.10;99.90
837;DHT22;400;53.550;9.932;2022-10-10T15:15:32;17.00;99.90
837;DHT22;400;53.550;9.932;2022-10-10T15:17:59;17.10;99.90
837;DHT22;400;53.550;9.932;2022-10-10T15:20:28;17.00;99.90
837;DHT22;400;53.550;9.932;2022-10-10T15:23:00;17.10;99.90
837;DHT22;400;53.550;9.932;2022-10-10T15:25:27;17.10;99.90
837;DHT22;400;53.550;9.932;2022-10-10T15:27:56;17.10;99.90
837;DHT22;400;53.550;9.932;2022-10-10T15:30:25;17.10;99.90
837;DHT22;400;53.550;9.932;2022-10-10T15:32:57;17.10;99.90
837;DHT22;400;53.550;9.932;2022-10-10T15:35:27;17.10;99.90
837;DHT22;400;53.550;9.932;2022-10-10T15:38:00;17.00;99.90
837;DHT22;400;53.550;9.932;2022-10-10T15:40:33;17.00;99.90
837;DHT22;400;53.550;9.932;2022-10-10T15:43:02;17.00;99.90
837;DHT22;400;53.550;9.932;2022-10-10T15:45:35;16.90;99.90
837;DHT22;400;53.550;9.932;2022-10-10T15:48:09;16.90;99.90
837;DHT22;400;53.550;9.932;2022-10-10T15:50:40;16.90;99.90
837;DHT22;400;53.550;9.932;2022-10-10T15:53:07;16.80;99.90
837;DHT22;400;53.550;9.932;2022-10-10T15:55:41;16.80;99.90
837;DHT22;400;53.550;9.932;2022-10-10T15:58:11;16.80;99.90
837;DHT22;400;53.550;9.932;2022-10-10T16:00:42;16.80;99.90
837;DHT22;400;53.550;9.932;2022-10-10T16:03:11;16.60;99.90
837;DHT22;400;53.550;9.932;2022-10-10T16:05:39;16.50;99.90
837;DHT22;400;53.550;9.932;2022-10-10T16:08:07;16.50;99.90
837;DHT22;400;53.550;9.932;2022-10-10T16:10:36;16.40;99.90
837;DHT22;400;53.550;9.932;2022-10-10T16:13:03;16.20;99.90
837;DHT22;400;53.550;9.932;2022-10-10T16:15:31;16.20;99.90
837;DHT22;400;53.550;9.932;2022-10-10T16:17:58;16.10;99.90
837;DHT22;400;53.550;9.932;2022-10-10T16:20:26;15.90;99.90
837;DHT22;400;53.550;9.932;2022-10-10T16:22:54;15.90;99.90
837;DHT22;400;53.550;9.932;2022-10-10T16:25:23;15.80;99.90
837;DHT22;400;53.550;9.932;2022-10-10T16:27:55;15.70;99.90
837;DHT22;400;53.550;9.932;2022-10-10T16:30:25;15.60;99.90
837;DHT22;400;53.550;9.932;2022-10-10T16:32:55;15.40;99.90
837;DHT22;400;53.550;9.932;2022-10-10T16:35:26;15.40;99.90
837;DHT22;400;53.550;9.932;2022-10-10T16:37:56;15.40;99.90
837;DHT22;400;53.550;9.932;2022-10-10T16:40:27;15.40;99.90
837;DHT22;400;53.550;9.932;2022-10-10T16:42:54;15.30;99.90
837;DHT22;400;53.550;9.932;2022-10-10T16:45:21;15.10;99.90
837;DHT22;400;53.550;9.932;2022-10-10T16:47:51;15.10;99.90
837;DHT22;400;53.550;9.932;2022-10-10T16:50:28;15.10;99.90
837;DHT22;400;53.550;9.932;2022-10-10T16:53:10;15.10;99.90
837;DHT22;400;53.550;9.932;2022-10-10T16:55:58;15.00;99.90
837;DHT22;400;53.550;9.932;2022-10-10T16:58:30;15.00;99.90
837;DHT22;400;53.550;9.932;2022-10-10T17:00:58;15.20;99.90
837;DHT22;400;53.550;9.932;2022-10-10T17:03:25;15.10;99.90
837;DHT22;400;53.550;9.932;2022-10-10T17:06:00;15.10;99.90
837;DHT22;400;53.550;9.932;2022-10-10T17:08:32;15.00;99.90
837;DHT22;400;53.550;9.932;2022-10-10T17:11:02;14.80;99.90
837;DHT22;400;53.550;9.932;2022-10-10T17:13:30;14.80;99.90
837;DHT22;400;53.550;9.932;2022-10-10T17:15:57;14.90;99.90
837;DHT22;400;53.550;9.932;2022-10-10T17:18:26;14.90;99.90
837;DHT22;400;53.550;9.932;2022-10-10T17:20:56;14.70;99.90
837;DHT22;400;53.550;9.932;2022-10-10T17:23:27;14.50;99.90
837;DHT22;400;53.550;9.932;2022-10-10T17:25:54;14.40;99.90
837;DHT22;400;53.550;9.932;2022-10-10T17:28:21;14.30;99.90
837;DHT22;400;53.550;9.932;2022-10-10T17:30:49;14.00;99.90
837;DHT22;400;53.550;9.932;2022-10-10T17:33:20;13.90;99.90
837;DHT22;400;53.550;9.932;2022-10-10T17:35:49;13.80;99.90